createdAt,value
2024-05-09T00:00:39.069Z,105.78
2024-05-09T00:03:08.423Z,103.05
2024-05-09T00:05:37.000Z,103.18
2024-05-09T00:08:04.855Z,103.72
2024-05-09T00:10:36.566Z,102.95
2024-05-09T00:13:06.884Z,104.97
2024-05-09T00:15:34.912Z,103.57
2024-05-09T00:18:02.993Z,104.13
2024-05-09T00:20:37.468Z,103.10
2024-05-09T00:23:08.044Z,102.95
2024-05-09T00:25:35.552Z,102.93
2024-05-09T00:28:02.855Z,104.03
2024-05-09T00:30:34.573Z,106.18
2024-05-09T00:33:08.104Z,103.72
2024-05-09T00:35:36.487Z,103.60
2024-05-09T00:38:03.628Z,103.95
2024-05-09T00:40:40.478Z,103.15
2024-05-09T00:43:10.592Z,103.55
2024-05-09T00:45:37.593Z,104.57
2024-05-09T00:48:07.326Z,103.07
2024-05-09T00:50:37.963Z,110.63
2024-05-09T00:53:06.769Z,103.50
2024-05-09T00:55:38.837Z,102.85
2024-05-09T00:58:07.226Z,103.82
2024-05-09T01:00:39.075Z,105.15
2024-05-09T01:03:10.360Z,103.72
2024-05-09T01:05:39.838Z,104.90
2024-05-09T01:08:07.739Z,105.95
2024-05-09T01:10:36.113Z,104.03
2024-05-09T01:13:04.408Z,105.63
2024-05-09T01:15:31.251Z,104.72
2024-05-09T01:17:59.174Z,105.35
2024-05-09T01:20:37.209Z,103.00
2024-05-09T01:23:09.767Z,104.60
2024-05-09T01:25:37.276Z,104.72
2024-05-09T01:28:04.401Z,104.13
2024-05-09T01:30:35.466Z,105.18
2024-05-09T01:33:05.957Z,104.82
2024-05-09T01:35:34.314Z,104.93
2024-05-09T01:38:01.282Z,104.45
2024-05-09T01:40:36.058Z,104.03
2024-05-09T01:43:05.806Z,104.75
2024-05-09T01:45:32.556Z,105.05
2024-05-09T01:47:59.604Z,104.93
2024-05-09T01:50:37.359Z,107.18
2024-05-09T01:53:08.737Z,104.97
2024-05-09T01:55:35.628Z,104.78
2024-05-09T01:58:02.362Z,123.70
2024-05-09T02:00:38.062Z,111.22
2024-05-09T02:03:15.830Z,105.18
2024-05-09T02:05:45.607Z,106.65
2024-05-09T02:08:15.074Z,103.88
2024-05-09T02:10:42.335Z,104.35
2024-05-09T02:13:09.398Z,104.13
2024-05-09T02:15:36.197Z,105.18
2024-05-09T02:18:03.367Z,105.00
2024-05-09T02:20:35.922Z,104.28
2024-05-09T02:23:06.185Z,104.60
2024-05-09T02:25:33.434Z,105.28
2024-05-09T02:28:00.230Z,104.70
2024-05-09T02:30:37.725Z,106.63
2024-05-09T02:33:08.380Z,106.32
2024-05-09T02:35:35.982Z,105.82
2024-05-09T02:38:03.482Z,103.95
2024-05-09T02:40:36.692Z,105.03
2024-05-09T02:43:06.829Z,104.93
2024-05-09T02:45:33.735Z,104.57
2024-05-09T02:48:01.553Z,104.60
2024-05-09T02:50:36.681Z,105.78
2024-05-09T02:53:09.942Z,105.63
2024-05-09T02:55:37.979Z,104.57
2024-05-09T02:58:06.782Z,104.10
2024-05-09T03:00:39.305Z,103.72
2024-05-09T03:03:10.345Z,105.70
2024-05-09T03:05:39.623Z,104.45
2024-05-09T03:08:06.922Z,105.28
2024-05-09T03:10:36.633Z,104.72
2024-05-09T03:13:13.800Z,106.18
2024-05-09T03:15:42.455Z,104.05
2024-05-09T03:18:09.690Z,106.68
2024-05-09T03:20:37.791Z,105.50
2024-05-09T03:23:06.346Z,105.97
2024-05-09T03:25:33.537Z,106.63
2024-05-09T03:28:00.436Z,104.88
2024-05-09T03:30:38.631Z,104.20
2024-05-09T03:33:15.339Z,105.72
2024-05-09T03:35:46.186Z,105.00
2024-05-09T03:38:13.189Z,106.07
2024-05-09T03:40:47.273Z,106.82
2024-05-09T03:43:14.563Z,107.05
2024-05-09T03:45:42.644Z,105.15
2024-05-09T03:48:09.726Z,104.47
2024-05-09T03:50:37.362Z,104.75
2024-05-09T03:53:04.832Z,104.30
2024-05-09T03:55:31.822Z,104.45
2024-05-09T03:57:58.687Z,105.40
2024-05-09T04:00:31.789Z,105.18
2024-05-09T04:03:07.006Z,105.05
2024-05-09T04:05:36.681Z,105.18
2024-05-09T04:08:03.724Z,105.97
2024-05-09T04:10:33.728Z,104.82
2024-05-09T04:13:02.519Z,105.38
2024-05-09T04:15:29.590Z,104.00
2024-05-09T04:17:56.662Z,105.75
2024-05-09T04:20:33.441Z,106.60
2024-05-09T04:23:13.607Z,104.63
2024-05-09T04:25:43.370Z,105.70
2024-05-09T04:28:10.154Z,106.03
2024-05-09T04:30:39.872Z,104.47
2024-05-09T04:33:11.880Z,105.22
2024-05-09T04:35:42.071Z,105.38
2024-05-09T04:38:09.405Z,105.28
2024-05-09T04:40:37.420Z,105.93
2024-05-09T04:43:15.336Z,104.13
2024-05-09T04:45:42.193Z,104.60
2024-05-09T04:48:09.293Z,106.40
2024-05-09T04:50:38.870Z,105.50
2024-05-09T04:53:08.807Z,105.75
2024-05-09T04:55:37.301Z,104.07
2024-05-09T04:58:05.474Z,104.93
2024-05-09T05:00:36.928Z,107.43
2024-05-09T05:03:07.598Z,106.22
2024-05-09T05:05:38.017Z,109.75
2024-05-09T05:08:05.594Z,103.22
2024-05-09T05:10:36.241Z,108.38
2024-05-09T05:13:17.964Z,104.53
2024-05-09T05:15:50.278Z,104.55
2024-05-09T05:18:17.469Z,104.25
2024-05-09T05:20:44.914Z,103.20
2024-05-09T05:23:14.125Z,107.07
2024-05-09T05:25:44.114Z,106.82
2024-05-09T05:28:11.161Z,104.03
2024-05-09T05:30:38.836Z,104.50
2024-05-09T05:33:07.174Z,103.97
2024-05-09T05:35:34.810Z,103.22
2024-05-09T05:38:02.442Z,107.07
2024-05-09T05:40:36.315Z,108.90
2024-05-09T05:43:10.005Z,104.63
2024-05-09T05:45:37.248Z,107.07
2024-05-09T05:48:06.240Z,103.10
2024-05-09T05:50:36.782Z,105.28
2024-05-09T05:53:09.860Z,109.18
2024-05-09T05:55:38.785Z,103.35
2024-05-09T05:58:05.688Z,103.10
2024-05-09T06:00:38.768Z,107.72
2024-05-09T06:03:08.016Z,106.68
2024-05-09T06:05:36.540Z,103.75
2024-05-09T06:08:03.590Z,103.57
2024-05-09T06:10:37.704Z,103.45
2024-05-09T06:13:07.105Z,105.90
2024-05-09T06:15:34.115Z,104.60
2024-05-09T06:18:01.353Z,103.18
2024-05-09T06:20:35.497Z,105.45
2024-05-09T06:23:05.740Z,104.00
2024-05-09T06:25:32.706Z,104.20
2024-05-09T06:28:00.841Z,101.53
2024-05-09T06:30:36.803Z,103.32
2024-05-09T06:33:07.702Z,102.63
2024-05-09T06:35:35.204Z,99.30
2024-05-09T06:38:02.370Z,99.25
2024-05-09T06:40:37.119Z,97.53
2024-05-09T06:43:11.366Z,96.50
2024-05-09T06:45:39.576Z,97.78
2024-05-09T06:48:07.560Z,96.82
2024-05-09T06:50:37.939Z,96.88
2024-05-09T06:53:06.948Z,95.50
2024-05-09T06:55:33.793Z,96.22
2024-05-09T06:58:00.655Z,93.68
2024-05-09T07:00:35.268Z,94.65
2024-05-09T07:03:10.833Z,94.32
2024-05-09T07:05:38.751Z,94.13
2024-05-09T07:08:06.572Z,91.78
2024-05-09T07:10:35.758Z,91.82
2024-05-09T07:13:03.566Z,94.22
2024-05-09T07:15:31.132Z,92.40
2024-05-09T07:17:58.094Z,91.37
2024-05-09T07:20:32.497Z,90.00
2024-05-09T07:23:03.028Z,90.10
2024-05-09T07:25:30.325Z,97.13
2024-05-09T07:27:57.309Z,89.93
2024-05-09T07:30:32.510Z,90.27
2024-05-09T07:33:02.307Z,90.40
2024-05-09T07:35:30.022Z,90.00
2024-05-09T07:37:57.184Z,88.50
2024-05-09T07:40:32.668Z,89.33
2024-05-09T07:43:06.960Z,88.83
2024-05-09T07:52:23.792Z,90.67
2024-05-09T07:53:38.986Z,88.07
2024-05-09T07:56:09.737Z,87.53
2024-05-09T07:58:37.109Z,88.13
2024-05-09T08:01:04.280Z,86.80
2024-05-09T08:03:31.515Z,87.17
2024-05-09T08:05:58.367Z,86.60
2024-05-09T08:08:25.139Z,88.17
2024-05-09T08:10:52.039Z,91.13
2024-05-09T08:13:19.049Z,86.17
2024-05-09T08:15:45.929Z,86.67
2024-05-09T08:18:12.897Z,85.70
2024-05-09T08:20:41.331Z,86.23
2024-05-09T08:23:08.399Z,85.20
2024-05-09T08:25:35.156Z,86.10
2024-05-09T08:28:04.521Z,85.30
2024-05-09T08:30:36.727Z,85.60
2024-05-09T08:33:06.218Z,84.70
2024-05-09T08:35:34.138Z,84.97
2024-05-09T08:38:03.631Z,85.67
2024-05-09T08:40:35.616Z,83.87
2024-05-09T08:43:09.004Z,85.90
2024-05-09T08:45:38.880Z,84.10
2024-05-09T08:48:08.644Z,83.40
2024-05-09T08:50:39.417Z,83.27
2024-05-09T08:53:07.872Z,82.80
2024-05-09T08:55:39.411Z,84.47
2024-05-09T08:58:13.446Z,86.37
2024-05-09T09:00:41.904Z,82.17
2024-05-09T09:03:11.541Z,82.87
2024-05-09T09:05:40.024Z,82.67
2024-05-09T09:08:08.615Z,82.27
2024-05-09T09:10:36.770Z,82.60
2024-05-09T09:13:05.145Z,82.10
2024-05-09T09:15:32.888Z,82.10
2024-05-09T09:18:00.844Z,82.67
2024-05-09T09:20:34.029Z,82.10
2024-05-09T09:23:03.783Z,82.17
2024-05-09T09:25:30.744Z,81.50
2024-05-09T09:27:58.210Z,82.00
2024-05-09T09:30:34.980Z,82.10
2024-05-09T09:33:05.972Z,82.70
2024-05-09T09:35:33.754Z,81.30
2024-05-09T09:38:03.281Z,84.60
2024-05-09T09:40:37.196Z,81.70
2024-05-09T09:43:14.432Z,82.40
2024-05-09T09:45:42.976Z,83.47
2024-05-09T09:48:11.984Z,81.97
2024-05-09T09:50:39.964Z,81.80
2024-05-09T09:53:07.863Z,82.00
2024-05-09T09:55:35.811Z,83.10
2024-05-09T09:58:04.229Z,80.77
2024-05-09T10:00:33.606Z,81.57
2024-05-09T10:03:01.731Z,80.90
2024-05-09T10:05:30.004Z,81.00
2024-05-09T10:07:58.395Z,81.13
2024-05-09T10:10:32.190Z,80.67
2024-05-09T10:13:01.235Z,80.70
2024-05-09T10:15:28.246Z,80.87
2024-05-09T10:18:04.055Z,80.23
2024-05-09T10:20:41.939Z,79.67
2024-05-09T10:23:24.020Z,80.20
2024-05-09T10:26:04.799Z,80.60
2024-05-09T10:28:33.453Z,80.97
2024-05-09T10:31:07.401Z,80.60
2024-05-09T10:33:38.425Z,81.20
2024-05-09T10:36:26.019Z,80.07
2024-05-09T10:38:54.609Z,80.27
2024-05-09T10:41:22.878Z,80.50
2024-05-09T10:43:50.622Z,80.30
2024-05-09T10:46:20.647Z,80.17
2024-05-09T10:48:48.550Z,81.20
2024-05-09T10:51:18.133Z,80.17
2024-05-09T10:53:46.486Z,80.60
2024-05-09T10:56:14.318Z,80.23
2024-05-09T10:58:41.218Z,80.00
2024-05-09T11:01:11.859Z,82.17
2024-05-09T11:03:39.905Z,80.67
2024-05-09T11:06:08.119Z,81.10
2024-05-09T11:08:36.306Z,81.17
2024-05-09T11:11:06.726Z,81.97
2024-05-09T11:13:36.062Z,82.70
2024-05-09T11:16:03.876Z,84.33
2024-05-09T11:18:36.511Z,89.20
2024-05-09T11:21:12.566Z,83.27
2024-05-09T11:23:39.770Z,83.47
2024-05-09T11:26:07.136Z,82.27
2024-05-09T11:28:33.950Z,82.90
2024-05-09T11:31:08.726Z,82.57
2024-05-09T11:33:44.702Z,84.40
2024-05-09T11:36:11.717Z,83.60
2024-05-09T11:38:38.637Z,83.17
2024-05-09T11:41:05.901Z,83.47
2024-05-09T11:43:32.978Z,83.40
2024-05-09T11:46:00.411Z,83.97
2024-05-09T11:48:27.919Z,85.73
2024-05-09T11:50:55.497Z,87.17
2024-05-09T11:53:22.420Z,87.13
2024-05-09T11:55:49.252Z,84.67
2024-05-09T11:58:17.826Z,84.07
2024-05-09T12:00:45.466Z,84.27
2024-05-09T12:03:12.586Z,84.00
2024-05-09T12:05:39.601Z,83.90
2024-05-09T12:08:07.026Z,84.03
2024-05-09T12:10:35.866Z,82.37
2024-05-09T12:13:05.516Z,83.37
2024-05-09T12:15:35.889Z,83.90
2024-05-09T12:18:04.254Z,84.37
2024-05-09T12:20:37.295Z,83.70
2024-05-09T12:23:07.091Z,86.27
2024-05-09T12:25:34.387Z,83.70
2024-05-09T12:28:01.464Z,84.30
2024-05-09T12:30:35.862Z,84.30
2024-05-09T12:33:10.030Z,84.40
2024-05-09T12:35:37.527Z,84.07
2024-05-09T12:38:04.758Z,85.30
2024-05-09T12:40:36.417Z,85.27
2024-05-09T12:43:06.946Z,94.90
2024-05-09T12:45:34.223Z,85.27
2024-05-09T12:48:01.224Z,86.83
2024-05-09T12:50:32.942Z,85.90
2024-05-09T12:53:02.189Z,86.67
2024-05-09T12:55:33.995Z,85.70
2024-05-09T12:58:08.089Z,88.27
2024-05-09T13:00:35.250Z,86.57
2024-05-09T13:03:02.209Z,86.40
2024-05-09T13:05:29.647Z,87.17
2024-05-09T13:07:57.208Z,87.80
2024-05-09T13:10:31.245Z,86.93
2024-05-09T13:13:01.040Z,87.60
2024-05-09T13:15:29.400Z,89.60
2024-05-09T13:18:00.338Z,89.17
2024-05-09T13:20:33.440Z,87.47
2024-05-09T13:23:07.669Z,87.27
2024-05-09T13:25:35.687Z,87.17
2024-05-09T13:28:03.637Z,88.27
2024-05-09T13:30:39.038Z,87.60
2024-05-09T13:33:09.308Z,88.40
2024-05-09T13:35:36.475Z,87.40
2024-05-09T13:38:04.459Z,87.27
2024-05-09T13:40:34.689Z,87.37
2024-05-09T13:43:04.550Z,87.10
2024-05-09T13:45:31.768Z,87.37
2024-05-09T13:47:58.965Z,89.63
2024-05-09T13:50:32.896Z,88.00
2024-05-09T13:53:03.052Z,88.17
2024-05-09T13:55:29.878Z,87.77
2024-05-09T13:57:56.938Z,88.60
2024-05-09T14:00:37.858Z,88.13
2024-05-09T14:03:10.826Z,88.50
2024-05-09T14:05:38.137Z,88.70
2024-05-09T14:08:05.598Z,89.77
2024-05-09T14:10:32.803Z,87.40
2024-05-09T14:13:00.937Z,87.63
2024-05-09T14:15:27.904Z,88.73
2024-05-09T14:17:55.367Z,88.10
2024-05-09T14:20:30.432Z,88.20
2024-05-09T14:23:00.071Z,89.93
2024-05-09T14:25:35.210Z,88.30
2024-05-09T14:28:04.087Z,88.03
2024-05-09T14:30:36.647Z,87.83
2024-05-09T14:33:06.273Z,88.03
2024-05-09T14:35:33.950Z,88.33
2024-05-09T14:38:00.705Z,86.67
2024-05-09T14:40:37.182Z,87.50
2024-05-09T14:43:10.198Z,87.60
2024-05-09T14:45:37.208Z,88.00
2024-05-09T14:48:04.456Z,88.00
2024-05-09T14:50:36.743Z,88.60
2024-05-09T14:53:10.192Z,89.80
2024-05-09T14:55:39.271Z,88.27
2024-05-09T14:58:07.637Z,89.97
2024-05-09T15:00:44.607Z,87.03
2024-05-09T15:03:15.094Z,87.77
2024-05-09T15:05:41.977Z,88.33
2024-05-09T15:08:09.029Z,89.70
2024-05-09T15:10:37.093Z,88.03
2024-05-09T15:13:05.206Z,88.27
2024-05-09T15:15:32.636Z,88.37
2024-05-09T15:17:59.951Z,89.83
2024-05-09T15:20:33.656Z,88.60
2024-05-09T15:23:03.249Z,89.00
2024-05-09T15:25:30.385Z,88.50
2024-05-09T15:27:57.460Z,88.27
2024-05-09T15:30:30.620Z,90.40
2024-05-09T15:33:00.073Z,89.77
2024-05-09T15:35:27.100Z,88.97
2024-05-09T15:37:53.988Z,94.13
2024-05-09T15:40:30.594Z,89.50
2024-05-09T15:43:04.859Z,89.27
2024-05-09T15:45:31.913Z,88.80
2024-05-09T15:47:59.121Z,90.43
2024-05-09T15:50:35.022Z,90.17
2024-05-09T15:53:05.866Z,88.83
2024-05-09T15:55:33.982Z,90.50
2024-05-09T15:58:02.434Z,89.23
2024-05-09T16:00:37.189Z,88.80
2024-05-09T16:03:07.857Z,89.57
2024-05-09T16:05:34.878Z,91.30
2024-05-09T16:08:01.895Z,90.47
2024-05-09T16:10:32.754Z,90.40
2024-05-09T16:13:02.289Z,90.57
2024-05-09T16:15:29.736Z,90.47
2024-05-09T16:17:56.761Z,91.30
2024-05-09T16:22:53.552Z,90.63
2024-05-09T16:25:20.424Z,91.27
2024-05-09T16:27:47.580Z,91.03
2024-05-09T16:30:21.346Z,90.90
2024-05-09T16:32:55.206Z,91.17
2024-05-09T16:35:22.025Z,92.40
2024-05-09T16:37:49.239Z,91.27
2024-05-09T16:40:25.193Z,91.70
2024-05-09T16:43:03.956Z,91.27
2024-05-09T16:45:31.011Z,91.27
2024-05-09T16:47:58.940Z,91.17
2024-05-09T16:50:31.039Z,90.87
2024-05-09T16:53:00.232Z,91.40
2024-05-09T16:55:27.351Z,92.50
2024-05-09T16:57:55.010Z,91.20
2024-05-09T17:00:31.698Z,91.47
2024-05-09T17:03:07.428Z,91.00
2024-05-09T17:05:35.228Z,91.47
2024-05-09T17:08:02.674Z,91.47
2024-05-09T17:10:33.288Z,91.07
2024-05-09T17:13:02.739Z,91.10
2024-05-09T17:15:29.933Z,91.00
2024-05-09T17:17:56.881Z,91.00
2024-05-09T17:20:31.645Z,90.50
2024-05-09T17:23:02.363Z,91.97
2024-05-09T17:25:29.483Z,91.47
2024-05-09T17:27:56.880Z,90.97
2024-05-09T17:30:32.070Z,93.10
2024-05-09T17:33:04.146Z,91.20
2024-05-09T17:35:32.036Z,91.87
2024-05-09T17:37:59.750Z,93.30
2024-05-09T17:40:32.795Z,92.47
2024-05-09T17:43:03.320Z,91.57
2024-05-09T17:45:30.718Z,94.17
2024-05-09T17:47:58.144Z,94.50
2024-05-09T17:50:31.800Z,92.97
2024-05-09T17:53:02.668Z,92.87
2024-05-09T17:55:29.782Z,92.30
2024-05-09T17:57:57.061Z,92.50
2024-05-09T18:00:36.108Z,92.63
2024-05-09T18:03:07.170Z,94.10
2024-05-09T18:05:36.722Z,92.50
2024-05-09T18:08:04.585Z,95.43
2024-05-09T18:10:36.687Z,93.37
2024-05-09T18:13:06.912Z,93.57
2024-05-09T18:15:34.378Z,94.30
2024-05-09T18:18:02.459Z,92.67
2024-05-09T18:20:38.119Z,93.60
2024-05-09T18:23:11.222Z,92.90
2024-05-09T18:25:38.022Z,93.33
2024-05-09T18:28:05.634Z,93.60
2024-05-09T18:30:35.475Z,94.50
2024-05-09T18:33:05.969Z,94.37
2024-05-09T18:35:34.127Z,94.67
2024-05-09T18:38:00.916Z,95.00
2024-05-09T18:40:33.300Z,94.17
2024-05-09T18:43:04.481Z,94.53
2024-05-09T18:45:32.271Z,96.70
2024-05-09T18:48:00.427Z,95.65
2024-05-09T18:50:34.803Z,95.13
2024-05-09T18:53:12.705Z,95.63
2024-05-09T18:55:42.387Z,96.17
2024-05-09T18:58:09.451Z,95.37
2024-05-09T19:00:39.056Z,95.70
2024-05-09T19:03:10.536Z,95.65
2024-05-09T19:05:40.523Z,95.57
2024-05-09T19:08:08.430Z,97.00
2024-05-09T19:10:38.534Z,96.38
2024-05-09T19:13:10.168Z,95.97
2024-05-09T19:15:40.058Z,95.97
2024-05-09T19:18:07.820Z,96.22
2024-05-09T19:20:36.434Z,97.43
2024-05-09T19:23:05.454Z,96.63
2024-05-09T19:25:33.149Z,97.40
2024-05-09T19:28:00.744Z,96.57
2024-05-09T19:30:36.725Z,96.85
2024-05-09T19:33:08.072Z,96.97
2024-05-09T19:35:35.054Z,99.88
2024-05-09T19:38:02.210Z,97.87
2024-05-09T19:40:32.174Z,97.13
2024-05-09T19:43:02.588Z,102.45
2024-05-09T19:45:30.190Z,98.47
2024-05-09T19:47:57.353Z,97.68
2024-05-09T19:50:32.408Z,98.57
2024-05-09T19:53:07.562Z,97.82
2024-05-09T19:55:34.548Z,98.00
2024-05-09T19:58:05.651Z,98.63
2024-05-09T20:00:39.859Z,98.43
2024-05-09T20:03:09.612Z,98.03
2024-05-09T20:05:37.488Z,97.82
2024-05-09T20:08:05.341Z,99.20
2024-05-09T20:10:34.482Z,98.18
2024-05-09T20:13:03.349Z,98.00
2024-05-09T20:15:34.373Z,98.63
2024-05-09T20:18:01.491Z,98.18
2024-05-09T20:20:36.350Z,97.97
2024-05-09T20:23:07.001Z,98.53
2024-05-09T20:25:33.725Z,98.68
2024-05-09T20:28:00.943Z,98.93
2024-05-09T20:30:32.213Z,98.47
2024-05-09T20:33:03.390Z,98.47
2024-05-09T20:35:34.728Z,101.68
2024-05-09T20:38:02.997Z,98.97
2024-05-09T20:40:34.745Z,98.72
2024-05-09T20:43:05.440Z,98.68
2024-05-09T20:45:32.587Z,98.93
2024-05-09T20:48:00.181Z,100.05
2024-05-09T20:50:36.055Z,99.22
2024-05-09T20:53:08.762Z,101.55
2024-05-09T20:55:35.923Z,99.28
2024-05-09T20:58:02.744Z,99.57
2024-05-09T21:00:37.652Z,99.53
2024-05-09T21:03:08.045Z,99.78
2024-05-09T21:05:35.548Z,99.45
2024-05-09T21:08:02.936Z,99.60
2024-05-09T21:10:32.572Z,99.53
2024-05-09T21:13:01.394Z,101.05
2024-05-09T21:15:28.444Z,98.93
2024-05-09T21:17:55.365Z,99.32
2024-05-09T21:20:28.715Z,100.90
2024-05-09T21:22:58.262Z,99.78
2024-05-09T21:25:25.115Z,99.68
2024-05-09T21:27:52.588Z,100.13
2024-05-09T21:30:31.578Z,99.20
2024-05-09T21:33:08.438Z,100.47
2024-05-09T21:35:35.672Z,99.38
2024-05-09T21:38:02.450Z,102.47
2024-05-09T21:40:34.333Z,100.43
2024-05-09T21:43:04.020Z,100.43
2024-05-09T21:45:31.001Z,99.80
2024-05-09T21:47:57.939Z,100.13
2024-05-09T21:50:32.277Z,104.75
2024-05-09T21:53:06.285Z,100.50
2024-05-09T21:55:33.297Z,100.20
2024-05-09T21:58:00.335Z,101.35
2024-05-09T22:00:34.732Z,100.00
2024-05-09T22:03:05.286Z,100.25
2024-05-09T22:05:32.472Z,100.25
2024-05-09T22:07:59.493Z,100.85
2024-05-09T22:10:32.597Z,100.57
2024-05-09T22:13:01.992Z,100.95
2024-05-09T22:15:28.972Z,103.03
2024-05-09T22:17:57.264Z,101.18
2024-05-09T22:20:33.507Z,101.43
2024-05-09T22:23:04.435Z,100.82
2024-05-09T22:25:32.255Z,101.53
2024-05-09T22:28:00.574Z,100.72
2024-05-09T22:30:34.804Z,100.78
2024-05-09T22:33:06.254Z,103.53
2024-05-09T22:35:33.408Z,101.05
2024-05-09T22:38:00.331Z,101.35
2024-05-09T22:40:38.677Z,110.25
2024-05-09T22:43:13.742Z,100.82
2024-05-09T22:45:40.893Z,105.03
2024-05-09T22:48:08.691Z,101.00
2024-05-09T22:50:35.778Z,101.65
2024-05-09T22:53:02.531Z,102.47
2024-05-09T22:55:30.026Z,101.85
2024-05-09T22:57:56.872Z,104.35
2024-05-09T23:02:53.417Z,102.35
2024-05-09T23:05:20.307Z,102.88
2024-05-09T23:07:47.110Z,101.85
2024-05-09T23:10:20.951Z,101.32
2024-05-09T23:12:54.003Z,100.97
2024-05-09T23:15:20.768Z,110.43
2024-05-09T23:17:47.737Z,102.13
2024-05-09T23:20:15.063Z,102.55
2024-05-09T23:22:46.123Z,101.63
2024-05-09T23:25:12.981Z,103.15
2024-05-09T23:27:39.831Z,102.18
2024-05-09T23:30:11.996Z,101.28
2024-05-09T23:32:39.370Z,103.32
2024-05-09T23:35:06.555Z,102.40
2024-05-09T23:37:33.294Z,102.68
2024-05-09T23:40:00.061Z,101.93
2024-05-09T23:42:26.840Z,102.45
2024-05-09T23:44:53.621Z,104.65
2024-05-09T23:47:20.412Z,102.22
2024-05-09T23:49:47.188Z,102.72
2024-05-09T23:52:14.165Z,103.60
2024-05-09T23:54:42.185Z,103.30
2024-05-09T23:57:08.964Z,103.82
2024-05-09T23:59:35.668Z,102.72
